createdAt,value
2023-03-18T00:01:10.665Z,22.05
2023-03-18T00:03:38.673Z,19.45
2023-03-18T00:06:09.256Z,17.23
2023-03-18T00:08:37.739Z,17.40
2023-03-18T00:11:05.604Z,15.85
2023-03-18T00:13:35.617Z,18.90
2023-03-18T00:16:04.365Z,16.83
2023-03-18T00:18:32.788Z,17.40
2023-03-18T00:21:01.009Z,12.82
2023-03-18T00:23:28.627Z,16.63
2023-03-18T00:25:56.897Z,15.77
2023-03-18T00:28:24.441Z,14.85
2023-03-18T00:30:51.712Z,16.83
2023-03-18T00:33:19.513Z,14.07
2023-03-18T00:35:47.591Z,16.65
2023-03-18T00:38:21.219Z,14.50
2023-03-18T00:41:01.382Z,16.55
2023-03-18T00:43:33.576Z,14.68
2023-03-18T00:46:00.856Z,12.63
2023-03-18T00:48:27.934Z,15.80
2023-03-18T00:50:54.747Z,15.48
2023-03-18T00:53:23.730Z,12.38
2023-03-18T00:55:50.540Z,13.00
2023-03-18T00:58:17.270Z,13.02
2023-03-18T01:00:44.187Z,12.20
2023-03-18T01:03:11.036Z,13.68
2023-03-18T01:05:38.275Z,13.50
2023-03-18T01:08:05.268Z,10.75
2023-03-18T01:10:33.141Z,13.25
2023-03-18T01:13:01.135Z,13.13
2023-03-18T01:15:28.316Z,14.10
2023-03-18T01:17:56.998Z,15.75
2023-03-18T01:20:25.572Z,17.73
2023-03-18T01:22:52.528Z,12.90
2023-03-18T01:25:19.621Z,13.77
2023-03-18T01:27:46.558Z,14.25
2023-03-18T01:30:14.092Z,13.20
2023-03-18T01:32:41.623Z,14.77
2023-03-18T01:35:08.947Z,15.32
2023-03-18T01:37:36.743Z,14.35
2023-03-18T01:40:03.834Z,16.35
2023-03-18T01:42:31.824Z,14.93
2023-03-18T01:45:18.035Z,14.02
2023-03-18T01:47:46.647Z,20.20
2023-03-18T01:50:17.053Z,13.95
2023-03-18T01:52:45.623Z,12.02
2023-03-18T01:55:22.814Z,16.13
2023-03-18T01:57:51.575Z,14.10
2023-03-18T02:00:20.092Z,13.25
2023-03-18T02:02:48.456Z,14.70
2023-03-18T02:05:19.640Z,14.35
2023-03-18T02:07:46.959Z,15.20
2023-03-18T02:10:18.326Z,12.95
2023-03-18T02:12:50.830Z,10.57
2023-03-18T02:15:21.469Z,15.65
2023-03-18T02:17:55.608Z,11.13
2023-03-18T02:20:40.681Z,15.43
2023-03-18T02:23:32.033Z,12.25
2023-03-18T02:26:17.613Z,11.95
2023-03-18T02:28:45.344Z,14.40
2023-03-18T02:31:16.689Z,13.77
2023-03-18T02:33:44.590Z,12.87
2023-03-18T02:36:25.252Z,13.75
2023-03-18T02:38:52.090Z,15.23
2023-03-18T02:41:27.465Z,15.75
2023-03-18T02:43:54.979Z,17.15
2023-03-18T02:46:33.467Z,18.77
2023-03-18T02:49:02.676Z,13.98
2023-03-18T02:51:30.376Z,18.17
2023-03-18T02:54:08.065Z,14.15
2023-03-18T02:56:35.268Z,17.42
2023-03-18T02:59:02.226Z,15.38
2023-03-18T03:01:30.039Z,13.32
2023-03-18T03:03:56.848Z,17.77
2023-03-18T03:06:24.374Z,18.17
2023-03-18T03:08:51.610Z,16.10
2023-03-18T03:11:19.113Z,16.25
2023-03-18T03:13:46.303Z,13.20
2023-03-18T03:16:17.871Z,16.52
2023-03-18T03:18:44.720Z,14.93
2023-03-18T03:21:12.912Z,14.10
2023-03-18T03:23:41.293Z,12.93
2023-03-18T03:26:08.211Z,15.00
2023-03-18T03:28:35.261Z,12.82
2023-03-18T03:31:02.273Z,14.07
2023-03-18T03:33:29.476Z,14.20
2023-03-18T03:35:58.148Z,13.88
2023-03-18T03:38:25.583Z,14.75
2023-03-18T03:40:53.877Z,16.65
2023-03-18T03:43:21.229Z,16.38
2023-03-18T03:45:48.251Z,18.45
2023-03-18T03:48:15.056Z,13.65
2023-03-18T03:50:41.975Z,17.30
2023-03-18T03:53:10.297Z,16.80
2023-03-18T03:55:37.879Z,17.25
2023-03-18T03:58:05.080Z,17.52
2023-03-18T04:00:33.256Z,17.17
2023-03-18T04:03:00.358Z,14.63
2023-03-18T04:05:27.223Z,14.98
2023-03-18T04:07:55.352Z,15.90
2023-03-18T04:10:22.913Z,15.30
2023-03-18T04:12:50.462Z,15.32
2023-03-18T04:15:19.895Z,15.98
2023-03-18T04:17:46.868Z,17.17
2023-03-18T04:20:14.796Z,16.23
2023-03-18T04:22:42.174Z,17.02
2023-03-18T04:25:11.247Z,16.30
2023-03-18T04:27:39.252Z,15.18
2023-03-18T04:30:08.423Z,18.65
2023-03-18T04:32:35.759Z,16.77
2023-03-18T04:35:03.077Z,15.30
2023-03-18T04:37:29.942Z,19.35
2023-03-18T04:39:56.953Z,20.88
2023-03-18T04:42:23.708Z,17.42
2023-03-18T04:44:50.659Z,15.40
2023-03-18T04:47:18.360Z,20.15
2023-03-18T04:49:45.424Z,20.50
2023-03-18T04:52:12.531Z,18.83
2023-03-18T04:54:39.776Z,17.90
2023-03-18T04:57:07.489Z,18.40
2023-03-18T04:59:34.436Z,24.70
2023-03-18T05:02:01.301Z,18.23
2023-03-18T05:04:28.321Z,19.33
2023-03-18T05:06:55.188Z,17.42
2023-03-18T05:09:21.972Z,19.65
2023-03-18T05:11:48.729Z,18.85
2023-03-18T05:14:15.552Z,20.70
2023-03-18T05:16:43.336Z,16.58
2023-03-18T05:19:10.700Z,22.73
2023-03-18T05:21:38.125Z,24.25
2023-03-18T05:24:05.184Z,16.98
2023-03-18T05:26:31.934Z,18.08
2023-03-18T05:28:59.390Z,19.83
2023-03-18T05:31:26.213Z,17.98
2023-03-18T05:33:53.070Z,19.58
2023-03-18T05:36:19.868Z,21.75
2023-03-18T05:38:46.784Z,18.38
2023-03-18T05:41:13.940Z,19.10
2023-03-18T05:43:40.711Z,22.15
2023-03-18T05:46:07.730Z,18.75
2023-03-18T05:48:34.536Z,17.20
2023-03-18T05:51:01.279Z,19.08
2023-03-18T05:53:28.697Z,18.10
2023-03-18T05:55:56.454Z,21.10
2023-03-18T05:58:24.091Z,20.40
2023-03-18T06:00:50.982Z,19.70
2023-03-18T06:03:19.353Z,20.17
2023-03-18T06:05:47.640Z,21.33
2023-03-18T06:08:15.205Z,23.08
2023-03-18T06:10:41.972Z,19.63
2023-03-18T06:13:11.671Z,21.77
2023-03-18T06:15:38.857Z,20.23
2023-03-18T06:18:05.659Z,23.42
2023-03-18T06:20:32.447Z,20.08
2023-03-18T06:22:59.965Z,23.00
2023-03-18T06:25:26.861Z,22.35
2023-03-18T06:27:53.776Z,20.08
2023-03-18T06:30:20.744Z,21.33
2023-03-18T06:32:47.735Z,16.90
2023-03-18T06:35:15.650Z,21.40
2023-03-18T06:37:43.508Z,21.42
2023-03-18T06:40:12.361Z,25.20
2023-03-18T06:42:39.429Z,19.60
2023-03-18T06:45:07.618Z,26.20
2023-03-18T06:47:34.491Z,29.02
2023-03-18T06:50:01.655Z,30.77
2023-03-18T06:52:28.471Z,27.20
2023-03-18T06:54:55.267Z,26.75
2023-03-18T06:57:22.095Z,21.23
2023-03-18T06:59:49.274Z,21.10
2023-03-18T07:02:16.184Z,23.15
2023-03-18T07:04:43.424Z,21.35
2023-03-18T07:07:10.676Z,25.20
2023-03-18T07:09:37.595Z,22.40
2023-03-18T07:12:04.562Z,22.08
2023-03-18T07:14:31.444Z,23.73
2023-03-18T07:16:58.454Z,23.40
2023-03-18T07:19:25.352Z,25.63
2023-03-18T07:21:52.180Z,23.67
2023-03-18T07:24:21.536Z,22.10
2023-03-18T07:26:50.421Z,21.17
2023-03-18T07:29:17.595Z,22.95
2023-03-18T07:31:44.535Z,21.85
2023-03-18T07:34:12.929Z,20.90
2023-03-18T07:36:39.730Z,21.58
2023-03-18T07:39:07.645Z,20.75
2023-03-18T07:41:37.334Z,17.48
2023-03-18T07:44:05.629Z,20.15
2023-03-18T07:46:32.518Z,22.20
2023-03-18T07:49:00.008Z,20.60
2023-03-18T07:51:27.335Z,20.50
2023-03-18T07:53:54.128Z,18.98
2023-03-18T07:56:21.395Z,28.15
2023-03-18T07:58:48.265Z,20.75
2023-03-18T08:01:18.462Z,26.08
2023-03-18T08:03:46.734Z,25.15
2023-03-18T08:06:15.512Z,20.63
2023-03-18T08:08:43.034Z,30.40
2023-03-18T08:11:10.288Z,24.75
2023-03-18T08:13:38.794Z,21.48
2023-03-18T08:16:06.128Z,24.55
2023-03-18T08:18:33.034Z,29.52
2023-03-18T08:21:01.819Z,47.70
2023-03-18T08:23:28.712Z,25.17
2023-03-18T08:25:55.537Z,23.17
2023-03-18T08:28:22.492Z,17.58
2023-03-18T08:30:53.231Z,23.05
2023-03-18T08:33:20.022Z,21.48
2023-03-18T08:35:47.983Z,29.90
2023-03-18T08:38:14.841Z,22.63
2023-03-18T08:40:42.335Z,19.98
2023-03-18T08:43:09.291Z,22.63
2023-03-18T08:45:36.999Z,23.75
2023-03-18T08:48:03.934Z,24.63
2023-03-18T08:50:30.762Z,21.13
2023-03-18T08:52:59.940Z,22.73
2023-03-18T08:55:37.296Z,22.17
2023-03-18T08:58:06.011Z,24.05
2023-03-18T09:00:34.782Z,26.70
2023-03-18T09:03:01.844Z,27.13
2023-03-18T09:05:28.866Z,21.10
2023-03-18T09:07:55.751Z,22.10
2023-03-18T09:10:22.667Z,27.60
2023-03-18T09:12:50.087Z,23.15
2023-03-18T09:15:31.806Z,20.85
2023-03-18T09:18:11.130Z,23.42
2023-03-18T09:20:39.239Z,23.52
2023-03-18T09:23:06.969Z,23.83
2023-03-18T09:25:34.403Z,20.33
2023-03-18T09:28:01.421Z,23.10
2023-03-18T09:30:28.808Z,25.88
2023-03-18T09:32:56.698Z,23.98
2023-03-18T09:35:24.307Z,26.55
2023-03-18T09:37:52.017Z,22.38
2023-03-18T09:40:25.932Z,25.20
2023-03-18T09:43:18.365Z,24.58
2023-03-18T09:48:17.992Z,22.95
2023-03-18T09:50:56.702Z,47.13
2023-03-18T09:53:48.428Z,28.45
2023-03-18T09:56:24.483Z,23.88
2023-03-18T09:59:01.124Z,23.13
2023-03-18T10:01:29.192Z,23.40
2023-03-18T10:04:13.573Z,27.40
2023-03-18T10:06:43.220Z,22.35
2023-03-18T10:09:51.048Z,24.77
2023-03-18T10:12:39.962Z,23.30
2023-03-18T10:15:21.528Z,26.55
2023-03-18T10:17:58.236Z,24.38
2023-03-18T10:20:53.223Z,22.13
2023-03-18T10:23:38.216Z,25.63
2023-03-18T10:26:14.095Z,22.95
2023-03-18T10:29:01.405Z,23.10
2023-03-18T10:31:50.121Z,25.17
2023-03-18T10:34:24.722Z,26.23
2023-03-18T10:37:04.127Z,26.23
2023-03-18T10:39:33.800Z,26.08
2023-03-18T10:42:10.612Z,28.52
2023-03-18T10:44:41.567Z,28.52
2023-03-18T10:47:08.756Z,25.10
2023-03-18T10:49:40.524Z,23.67
2023-03-18T10:52:12.063Z,32.45
2023-03-18T10:54:53.288Z,23.23
2023-03-18T10:57:22.059Z,29.88
2023-03-18T10:59:52.238Z,28.02
2023-03-18T11:02:35.907Z,30.30
2023-03-18T11:05:11.868Z,26.13
2023-03-18T11:07:56.663Z,27.25
2023-03-18T11:10:32.301Z,27.23
2023-03-18T11:13:02.789Z,26.15
2023-03-18T11:15:36.152Z,28.33
2023-03-18T11:18:03.358Z,32.85
2023-03-18T11:20:45.512Z,31.45
2023-03-18T11:23:17.950Z,28.00
2023-03-18T11:25:49.830Z,26.45
2023-03-18T11:28:28.075Z,29.55
2023-03-18T11:31:00.457Z,31.15
2023-03-18T11:33:35.210Z,28.13
2023-03-18T11:36:14.301Z,28.85
2023-03-18T11:38:41.070Z,28.50
2023-03-18T11:41:24.188Z,29.17
2023-03-18T11:44:06.723Z,28.85
2023-03-18T11:46:47.871Z,37.22
2023-03-18T11:49:21.461Z,26.98
2023-03-18T11:52:02.939Z,30.38
2023-03-18T11:54:45.812Z,33.38
2023-03-18T11:57:50.020Z,30.33
2023-03-18T12:00:31.838Z,33.00
2023-03-18T12:03:13.729Z,31.33
2023-03-18T12:06:00.594Z,35.45
2023-03-18T12:08:49.907Z,27.08
2023-03-18T12:11:38.388Z,30.58
2023-03-18T12:14:34.565Z,26.63
2023-03-18T12:17:08.122Z,32.13
2023-03-18T12:20:02.926Z,29.90
2023-03-18T12:22:50.642Z,28.10
2023-03-18T12:26:01.062Z,34.90
2023-03-18T12:29:05.415Z,32.85
2023-03-18T12:31:53.357Z,31.27
2023-03-18T12:34:28.525Z,32.50
2023-03-18T12:37:05.592Z,30.88
2023-03-18T12:40:06.144Z,33.22
2023-03-18T12:43:00.765Z,30.58
2023-03-18T12:45:33.071Z,33.08
2023-03-18T12:48:04.593Z,32.92
2023-03-18T12:50:41.344Z,32.38
2023-03-18T12:53:22.539Z,30.95
2023-03-18T12:55:57.586Z,31.25
2023-03-18T12:58:29.024Z,34.40
2023-03-18T13:01:17.982Z,32.00
2023-03-18T13:03:53.994Z,35.58
2023-03-18T13:06:30.998Z,29.42
2023-03-18T13:09:09.941Z,33.22
2023-03-18T13:11:55.509Z,31.35
2023-03-18T13:14:41.075Z,31.20
2023-03-18T13:17:23.521Z,32.72
2023-03-18T13:19:50.546Z,30.15
2023-03-18T13:22:43.983Z,32.78
2023-03-18T13:25:34.560Z,33.67
2023-03-18T13:28:41.747Z,34.08
2023-03-18T13:31:08.512Z,30.27
2023-03-18T13:34:10.815Z,34.45
2023-03-18T13:37:10.091Z,44.47
2023-03-18T13:39:42.950Z,108.95
2023-03-18T13:42:23.162Z,44.45
2023-03-18T13:45:25.893Z,31.30
2023-03-18T13:48:01.316Z,33.55
2023-03-18T13:50:31.567Z,36.45
2023-03-18T13:53:01.576Z,29.92
2023-03-18T13:55:35.422Z,34.90
2023-03-18T13:58:09.232Z,35.63
2023-03-18T14:00:40.519Z,31.23
2023-03-18T14:03:21.905Z,31.35
2023-03-18T14:06:08.488Z,36.20
2023-03-18T14:08:42.893Z,28.30
2023-03-18T14:11:47.327Z,29.63
2023-03-18T14:14:48.369Z,29.35
2023-03-18T14:17:22.595Z,35.05
2023-03-18T14:19:54.505Z,31.73
2023-03-18T14:25:18.776Z,29.63
2023-03-18T14:28:15.610Z,32.90
2023-03-18T14:30:49.195Z,26.65
2023-03-18T14:33:20.094Z,29.48
2023-03-18T14:35:48.220Z,26.65
2023-03-18T14:38:29.914Z,29.55
2023-03-18T14:40:58.863Z,28.15
2023-03-18T14:43:30.091Z,31.77
2023-03-18T14:46:01.843Z,31.10
2023-03-18T14:48:34.548Z,31.25
2023-03-18T14:51:04.970Z,34.13
2023-03-18T14:53:48.983Z,34.70
2023-03-18T14:56:23.832Z,30.13
2023-03-18T14:58:55.217Z,29.30
2023-03-18T15:01:38.652Z,33.03
2023-03-18T15:04:15.670Z,31.00
2023-03-18T15:06:43.042Z,26.88
2023-03-18T15:09:19.224Z,28.05
2023-03-18T15:11:47.849Z,32.58
2023-03-18T15:14:30.168Z,29.35
2023-03-18T15:17:00.018Z,28.38
2023-03-18T15:19:28.792Z,32.97
2023-03-18T15:21:58.876Z,33.72
2023-03-18T15:24:26.983Z,28.02
2023-03-18T15:27:08.909Z,31.17
2023-03-18T15:29:57.501Z,29.73
2023-03-18T15:32:28.381Z,31.98
2023-03-18T15:35:05.559Z,34.05
2023-03-18T15:37:40.203Z,32.45
2023-03-18T15:40:30.023Z,29.33
2023-03-18T15:43:08.275Z,36.72
2023-03-18T15:45:36.183Z,35.35
2023-03-18T15:48:21.787Z,34.03
2023-03-18T15:50:54.120Z,33.97
2023-03-18T15:53:39.663Z,34.70
2023-03-18T15:56:19.703Z,33.65
2023-03-18T15:58:56.804Z,35.83
2023-03-18T16:01:23.592Z,30.05
2023-03-18T16:03:51.462Z,36.38
2023-03-18T16:06:18.320Z,36.28
2023-03-18T16:08:46.241Z,35.88
2023-03-18T16:11:15.368Z,38.72
2023-03-18T16:13:44.662Z,41.92
2023-03-18T16:16:26.243Z,41.00
2023-03-18T16:18:53.048Z,36.95
2023-03-18T16:21:20.771Z,41.92
2023-03-18T16:23:48.480Z,41.55
2023-03-18T16:26:17.438Z,41.85
2023-03-18T16:28:47.091Z,38.78
2023-03-18T16:31:15.403Z,44.50
2023-03-18T16:33:42.602Z,40.35
2023-03-18T16:36:25.809Z,39.85
2023-03-18T16:38:52.795Z,42.03
2023-03-18T16:41:19.726Z,36.72
2023-03-18T16:43:49.111Z,41.47
2023-03-18T16:46:17.367Z,39.03
2023-03-18T16:48:44.532Z,36.45
2023-03-18T16:51:11.321Z,40.38
2023-03-18T16:53:38.116Z,34.72
2023-03-18T16:56:16.349Z,41.78
2023-03-18T16:58:44.567Z,39.03
2023-03-18T17:01:16.445Z,42.38
2023-03-18T17:03:43.756Z,42.05
2023-03-18T17:06:10.716Z,43.25
2023-03-18T17:08:38.346Z,44.40
2023-03-18T17:11:05.510Z,41.75
2023-03-18T17:13:35.002Z,38.00
2023-03-18T17:16:01.810Z,41.60
2023-03-18T17:18:28.638Z,42.42
2023-03-18T17:20:55.531Z,45.22
2023-03-18T17:23:26.720Z,44.72
2023-03-18T17:25:56.851Z,39.70
2023-03-18T17:28:28.337Z,40.78
2023-03-18T17:30:55.236Z,41.38
2023-03-18T17:33:31.202Z,48.83
2023-03-18T17:36:00.309Z,51.88
2023-03-18T17:38:28.284Z,46.35
2023-03-18T17:40:55.588Z,47.03
2023-03-18T17:43:27.837Z,41.03
2023-03-18T17:45:58.410Z,41.05
2023-03-18T17:48:27.680Z,51.53
2023-03-18T17:50:57.286Z,42.55
2023-03-18T17:53:37.415Z,46.22
2023-03-18T17:56:06.250Z,42.33
2023-03-18T17:58:34.487Z,42.90
2023-03-18T18:01:22.731Z,53.35
2023-03-18T18:03:49.691Z,52.75
2023-03-18T18:06:19.086Z,56.10
2023-03-18T18:08:47.499Z,52.88
2023-03-18T18:11:22.156Z,51.03
2023-03-18T18:13:50.087Z,47.72
2023-03-18T18:16:17.504Z,55.38
2023-03-18T18:18:44.651Z,57.80
2023-03-18T18:21:15.460Z,53.75
2023-03-18T18:23:44.851Z,50.13
2023-03-18T18:26:14.792Z,54.22
2023-03-18T18:28:48.176Z,71.97
2023-03-18T18:31:17.677Z,128.80
2023-03-18T18:33:45.812Z,67.05
2023-03-18T18:36:14.171Z,73.65
2023-03-18T18:38:41.353Z,60.08
2023-03-18T18:41:08.211Z,54.95
2023-03-18T18:43:35.017Z,53.53
2023-03-18T18:46:02.105Z,49.53
2023-03-18T18:48:31.851Z,58.10
2023-03-18T18:51:00.205Z,51.42
2023-03-18T18:53:38.702Z,55.85
2023-03-18T18:56:23.614Z,57.53
2023-03-18T18:58:52.066Z,52.53
2023-03-18T19:01:20.041Z,51.17
2023-03-18T19:03:48.317Z,69.80
2023-03-18T19:06:36.533Z,61.40
2023-03-18T19:09:15.082Z,56.75
2023-03-18T19:11:41.800Z,53.22
2023-03-18T19:14:29.210Z,39.38
2023-03-18T19:17:01.179Z,31.52
2023-03-18T19:19:30.989Z,32.90
2023-03-18T19:21:57.812Z,26.48
2023-03-18T19:24:26.650Z,22.15
2023-03-18T19:26:59.395Z,34.47
2023-03-18T19:29:27.153Z,27.67
2023-03-18T19:31:54.720Z,30.23
2023-03-18T19:34:22.136Z,31.33
2023-03-18T19:36:53.136Z,28.58
2023-03-18T19:39:22.032Z,27.58
2023-03-18T19:41:49.065Z,23.40
2023-03-18T19:44:18.858Z,20.77
2023-03-18T19:46:47.427Z,20.20
2023-03-18T19:49:27.052Z,20.55
2023-03-18T19:51:54.786Z,16.02
2023-03-18T19:54:27.364Z,18.17
2023-03-18T19:56:56.745Z,19.10
2023-03-18T19:59:33.559Z,14.18
2023-03-18T20:02:11.602Z,18.40
2023-03-18T20:04:38.391Z,17.27
2023-03-18T20:07:06.424Z,21.77
2023-03-18T20:09:33.395Z,17.85
2023-03-18T20:12:06.024Z,24.95
2023-03-18T20:14:38.083Z,24.55
2023-03-18T20:19:53.584Z,25.40
2023-03-18T20:22:27.396Z,30.63
2023-03-18T20:24:54.499Z,44.00
2023-03-18T20:27:21.943Z,42.03
2023-03-18T20:29:49.049Z,43.35
2023-03-18T20:32:15.939Z,48.55
2023-03-18T20:34:43.902Z,52.95
2023-03-18T20:37:40.419Z,46.83
2023-03-18T20:40:34.465Z,48.00
2023-03-18T20:43:01.831Z,45.40
2023-03-18T20:45:28.956Z,40.72
2023-03-18T20:47:56.705Z,36.85
2023-03-18T20:50:29.889Z,45.00
2023-03-18T20:52:57.575Z,44.55
2023-03-18T20:55:35.823Z,37.58
2023-03-18T20:58:03.000Z,39.22
2023-03-18T21:00:33.173Z,39.17
2023-03-18T21:03:02.978Z,47.58
2023-03-18T21:05:30.017Z,39.58
2023-03-18T21:07:56.782Z,43.53
2023-03-18T21:10:25.942Z,40.58
2023-03-18T21:12:53.265Z,36.20
2023-03-18T21:15:22.946Z,37.85
2023-03-18T21:17:50.006Z,37.65
2023-03-18T21:20:25.690Z,36.55
2023-03-18T21:22:53.170Z,33.42
2023-03-18T21:25:25.694Z,34.78
2023-03-18T21:27:52.613Z,33.22
2023-03-18T21:30:22.060Z,34.10
2023-03-18T21:32:50.527Z,32.92
2023-03-18T21:35:23.502Z,38.95
2023-03-18T21:37:51.696Z,35.70
2023-03-18T21:40:26.220Z,30.40
2023-03-18T21:42:53.265Z,33.33
2023-03-18T21:45:23.623Z,33.70
2023-03-18T21:47:52.449Z,33.47
2023-03-18T21:50:21.850Z,36.15
2023-03-18T21:52:49.298Z,38.75
2023-03-18T21:55:16.432Z,34.17
2023-03-18T21:57:43.396Z,32.17
2023-03-18T22:00:20.744Z,34.42
2023-03-18T22:02:48.285Z,38.47
2023-03-18T22:05:24.597Z,35.13
2023-03-18T22:07:51.952Z,38.75
2023-03-18T22:10:22.399Z,32.25
2023-03-18T22:12:50.095Z,36.35
2023-03-18T22:15:38.432Z,32.17
2023-03-18T22:18:07.199Z,39.90
2023-03-18T22:20:36.064Z,40.70
2023-03-18T22:23:12.969Z,43.00
2023-03-18T22:25:41.618Z,44.17
2023-03-18T22:28:08.691Z,39.17
2023-03-18T22:30:35.782Z,44.40
2023-03-18T22:33:05.459Z,41.75
2023-03-18T22:35:33.000Z,45.95
2023-03-18T22:37:59.998Z,41.08
2023-03-18T22:40:29.594Z,42.90
2023-03-18T22:43:01.646Z,40.78
2023-03-18T22:45:33.479Z,41.53
2023-03-18T22:48:03.739Z,43.35
2023-03-18T22:50:33.840Z,42.65
2023-03-18T22:53:08.961Z,47.33
2023-03-18T22:55:38.784Z,47.33
2023-03-18T22:58:07.620Z,45.97
2023-03-18T23:00:40.008Z,47.17
2023-03-18T23:03:18.300Z,44.30
2023-03-18T23:05:47.075Z,43.67
2023-03-18T23:08:14.529Z,44.63
2023-03-18T23:10:42.782Z,46.50
2023-03-18T23:13:21.689Z,50.55
2023-03-18T23:15:48.420Z,49.38
2023-03-18T23:18:16.840Z,51.83
2023-03-18T23:20:49.350Z,44.97
2023-03-18T23:23:17.543Z,40.85
2023-03-18T23:25:45.673Z,50.78
2023-03-18T23:28:13.373Z,48.47
2023-03-18T23:30:42.041Z,52.15
2023-03-18T23:33:09.857Z,50.95
2023-03-18T23:35:38.206Z,51.13
2023-03-18T23:38:06.580Z,48.30
2023-03-18T23:40:33.803Z,44.33
2023-03-18T23:43:01.036Z,51.08
2023-03-18T23:45:28.107Z,53.20
2023-03-18T23:47:55.960Z,48.50
2023-03-18T23:50:23.429Z,47.10
2023-03-18T23:52:50.509Z,46.42
2023-03-18T23:55:33.088Z,43.92
2023-03-18T23:58:01.382Z,47.53
